createdAt,value
2023-02-06T00:01:20.031Z,18.15
2023-02-06T00:03:47.038Z,14.60
2023-02-06T00:06:14.811Z,17.00
2023-02-06T00:08:42.125Z,16.60
2023-02-06T00:11:12.197Z,18.33
2023-02-06T00:13:39.278Z,16.38
2023-02-06T00:16:14.867Z,17.10
2023-02-06T00:18:41.980Z,22.70
2023-02-06T00:21:09.017Z,16.25
2023-02-06T00:23:36.092Z,18.80
2023-02-06T00:26:03.142Z,15.55
2023-02-06T00:28:30.063Z,19.35
2023-02-06T00:30:56.995Z,18.83
2023-02-06T00:33:24.015Z,14.15
2023-02-06T00:35:52.014Z,16.20
2023-02-06T00:38:18.883Z,12.95
2023-02-06T00:40:46.186Z,14.35
2023-02-06T00:43:13.541Z,16.05
2023-02-06T00:45:40.614Z,17.75
2023-02-06T00:48:09.187Z,21.13
2023-02-06T00:50:36.843Z,13.98
2023-02-06T00:53:03.882Z,17.33
2023-02-06T00:55:30.756Z,15.98
2023-02-06T00:57:57.669Z,19.63
2023-02-06T01:00:31.690Z,10.30
2023-02-06T01:02:58.814Z,16.70
2023-02-06T01:05:26.434Z,11.38
2023-02-06T01:07:53.648Z,18.33
2023-02-06T01:10:21.641Z,15.35
2023-02-06T01:12:48.868Z,15.73
2023-02-06T01:15:16.499Z,15.85
2023-02-06T01:17:43.660Z,12.00
2023-02-06T01:20:13.201Z,13.50
2023-02-06T01:22:40.525Z,11.23
2023-02-06T01:25:07.989Z,11.18
2023-02-06T01:27:37.079Z,14.13
2023-02-06T01:30:06.032Z,15.02
2023-02-06T01:32:39.116Z,20.35
2023-02-06T01:35:08.424Z,16.73
2023-02-06T01:37:37.059Z,14.07
2023-02-06T01:40:06.753Z,18.13
2023-02-06T01:42:39.364Z,13.00
2023-02-06T01:45:21.991Z,14.52
2023-02-06T01:47:52.624Z,15.82
2023-02-06T01:50:20.077Z,14.65
2023-02-06T01:52:47.745Z,15.23
2023-02-06T01:55:15.447Z,14.75
2023-02-06T01:57:43.115Z,14.57
2023-02-06T02:00:13.486Z,19.73
2023-02-06T02:02:44.221Z,14.95
2023-02-06T02:05:16.117Z,17.35
2023-02-06T02:07:52.910Z,16.40
2023-02-06T02:10:20.137Z,16.60
2023-02-06T02:12:47.379Z,13.20
2023-02-06T02:15:14.652Z,14.73
2023-02-06T02:18:02.858Z,12.07
2023-02-06T02:20:41.841Z,10.48
2023-02-06T02:23:38.360Z,11.52
2023-02-06T02:26:21.906Z,14.25
2023-02-06T02:29:16.822Z,14.43
2023-02-06T02:32:21.976Z,14.90
2023-02-06T02:35:00.480Z,11.25
2023-02-06T02:38:01.180Z,13.55
2023-02-06T02:40:54.833Z,16.63
2023-02-06T02:43:46.804Z,18.50
2023-02-06T02:46:26.201Z,16.02
2023-02-06T02:48:56.926Z,13.00
2023-02-06T02:51:25.037Z,13.95
2023-02-06T02:53:52.268Z,18.30
2023-02-06T02:56:23.733Z,16.98
2023-02-06T02:58:59.388Z,16.17
2023-02-06T03:01:32.154Z,13.52
2023-02-06T03:04:03.815Z,15.05
2023-02-06T03:07:00.127Z,11.80
2023-02-06T03:09:57.861Z,15.88
2023-02-06T03:12:45.137Z,13.88
2023-02-06T03:15:44.429Z,13.43
2023-02-06T03:18:42.485Z,16.75
2023-02-06T03:21:17.762Z,16.88
2023-02-06T03:23:48.216Z,13.25
2023-02-06T03:26:20.328Z,18.67
2023-02-06T03:28:54.062Z,23.48
2023-02-06T03:31:28.986Z,17.75
2023-02-06T03:34:02.395Z,19.70
2023-02-06T03:36:29.804Z,16.30
2023-02-06T03:38:56.892Z,14.88
2023-02-06T03:41:27.990Z,13.13
2023-02-06T03:43:56.526Z,13.20
2023-02-06T03:46:25.572Z,9.80
2023-02-06T03:48:57.328Z,14.32
2023-02-06T03:51:53.672Z,13.68
2023-02-06T03:54:24.353Z,12.23
2023-02-06T03:56:58.019Z,17.20
2023-02-06T03:59:25.438Z,17.50
2023-02-06T04:01:56.047Z,14.82
2023-02-06T04:04:41.566Z,19.45
2023-02-06T04:07:15.123Z,18.70
2023-02-06T04:09:42.553Z,19.42
2023-02-06T04:12:10.024Z,19.90
2023-02-06T04:14:37.411Z,11.15
2023-02-06T04:17:05.435Z,14.95
2023-02-06T04:19:32.586Z,19.95
2023-02-06T04:21:59.803Z,11.05
2023-02-06T04:24:26.804Z,16.05
2023-02-06T04:27:02.736Z,18.73
2023-02-06T04:29:29.624Z,15.70
2023-02-06T04:32:02.082Z,15.07
2023-02-06T04:34:29.976Z,15.60
2023-02-06T04:36:57.387Z,14.02
2023-02-06T04:39:24.864Z,13.88
2023-02-06T04:41:51.954Z,12.52
2023-02-06T04:44:19.233Z,12.15
2023-02-06T04:46:46.671Z,11.57
2023-02-06T04:49:14.770Z,12.35
2023-02-06T04:51:42.613Z,17.50
2023-02-06T04:54:13.665Z,16.15
2023-02-06T04:56:41.052Z,14.85
2023-02-06T04:59:09.344Z,13.55
2023-02-06T05:01:36.264Z,10.95
2023-02-06T05:04:03.719Z,17.83
2023-02-06T05:06:31.584Z,15.00
2023-02-06T05:09:03.978Z,14.93
2023-02-06T05:11:31.399Z,11.27
2023-02-06T05:13:58.341Z,16.40
2023-02-06T05:16:26.364Z,33.10
2023-02-06T05:18:55.196Z,39.25
2023-02-06T05:21:23.509Z,37.65
2023-02-06T05:23:50.797Z,39.33
2023-02-06T05:26:18.036Z,31.70
2023-02-06T05:28:45.071Z,33.33
2023-02-06T05:31:18.396Z,27.33
2023-02-06T05:33:48.610Z,36.85
2023-02-06T05:36:16.831Z,27.75
2023-02-06T05:38:44.595Z,22.85
2023-02-06T05:41:11.509Z,19.02
2023-02-06T05:43:38.770Z,22.23
2023-02-06T05:46:05.818Z,25.27
2023-02-06T05:48:34.818Z,24.35
2023-02-06T05:51:02.233Z,25.13
2023-02-06T05:53:29.449Z,28.70
2023-02-06T05:55:56.935Z,24.52
2023-02-06T05:58:24.086Z,23.95
2023-02-06T06:00:51.008Z,19.08
2023-02-06T06:03:17.985Z,26.38
2023-02-06T06:05:45.891Z,23.95
2023-02-06T06:08:12.913Z,23.88
2023-02-06T06:10:40.081Z,21.77
2023-02-06T06:13:08.333Z,25.58
2023-02-06T06:15:37.757Z,19.23
2023-02-06T06:18:05.051Z,32.22
2023-02-06T06:20:32.040Z,27.48
2023-02-06T06:22:58.975Z,18.00
2023-02-06T06:25:25.993Z,23.83
2023-02-06T06:27:53.114Z,23.25
2023-02-06T06:30:20.078Z,25.23
2023-02-06T06:32:46.963Z,22.30
2023-02-06T06:35:13.864Z,26.98
2023-02-06T06:37:40.957Z,21.00
2023-02-06T06:40:08.284Z,17.98
2023-02-06T06:42:35.353Z,19.83
2023-02-06T06:45:02.438Z,20.27
2023-02-06T06:47:29.616Z,18.98
2023-02-06T06:49:56.489Z,22.77
2023-02-06T06:52:25.654Z,15.88
2023-02-06T06:54:53.541Z,20.20
2023-02-06T06:57:22.072Z,18.80
2023-02-06T06:59:49.462Z,17.88
2023-02-06T07:02:17.196Z,14.52
2023-02-06T07:04:44.508Z,23.40
2023-02-06T07:07:11.563Z,18.65
2023-02-06T07:09:38.884Z,20.17
2023-02-06T07:12:06.194Z,17.08
2023-02-06T07:14:33.567Z,22.80
2023-02-06T07:17:01.768Z,23.58
2023-02-06T07:19:28.904Z,22.63
2023-02-06T07:21:57.416Z,22.13
2023-02-06T07:24:24.814Z,19.40
2023-02-06T07:26:52.081Z,21.02
2023-02-06T07:29:19.287Z,18.30
2023-02-06T07:31:46.796Z,20.60
2023-02-06T07:34:14.243Z,19.35
2023-02-06T07:36:41.642Z,20.98
2023-02-06T07:39:08.918Z,22.77
2023-02-06T07:41:36.061Z,25.33
2023-02-06T07:44:03.015Z,22.77
2023-02-06T07:46:33.932Z,23.88
2023-02-06T07:52:02.911Z,28.83
2023-02-06T07:54:30.228Z,21.02
2023-02-06T07:56:57.327Z,18.50
2023-02-06T07:59:24.923Z,21.52
2023-02-06T08:01:52.812Z,19.35
2023-02-06T08:04:19.938Z,20.00
2023-02-06T08:06:47.228Z,18.92
2023-02-06T08:09:18.905Z,22.85
2023-02-06T08:11:55.480Z,23.73
2023-02-06T08:14:22.794Z,19.50
2023-02-06T08:16:50.449Z,16.85
2023-02-06T08:19:18.075Z,19.30
2023-02-06T08:21:45.244Z,22.48
2023-02-06T08:24:12.770Z,19.92
2023-02-06T08:26:39.972Z,19.45
2023-02-06T08:29:08.119Z,19.67
2023-02-06T08:31:38.015Z,23.77
2023-02-06T08:34:06.621Z,20.67
2023-02-06T08:36:33.809Z,19.58
2023-02-06T08:39:01.958Z,17.50
2023-02-06T08:41:31.866Z,18.70
2023-02-06T08:44:01.062Z,20.17
2023-02-06T08:46:32.297Z,20.13
2023-02-06T08:49:15.534Z,24.52
2023-02-06T08:51:46.433Z,21.15
2023-02-06T08:54:16.378Z,30.80
2023-02-06T08:56:44.215Z,17.65
2023-02-06T08:59:15.373Z,18.45
2023-02-06T09:01:45.380Z,18.92
2023-02-06T09:04:14.177Z,18.08
2023-02-06T09:06:44.170Z,15.10
2023-02-06T09:09:12.547Z,16.67
2023-02-06T09:11:39.477Z,15.85
2023-02-06T09:14:08.824Z,18.35
2023-02-06T09:16:37.737Z,18.27
2023-02-06T09:19:06.491Z,22.52
2023-02-06T09:21:35.642Z,19.98
2023-02-06T09:24:05.659Z,22.27
2023-02-06T09:26:38.908Z,18.58
2023-02-06T09:29:10.333Z,20.98
2023-02-06T09:31:40.015Z,21.15
2023-02-06T09:34:08.096Z,21.27
2023-02-06T09:36:36.776Z,20.42
2023-02-06T09:39:08.467Z,22.90
2023-02-06T09:41:49.207Z,22.55
2023-02-06T09:44:27.415Z,24.40
2023-02-06T09:47:20.957Z,25.83
2023-02-06T09:49:51.242Z,17.05
2023-02-06T09:52:27.291Z,18.30
2023-02-06T09:55:05.437Z,20.05
2023-02-06T09:57:44.186Z,20.75
2023-02-06T10:00:43.923Z,25.65
2023-02-06T10:03:19.325Z,24.40
2023-02-06T10:06:06.656Z,22.95
2023-02-06T10:09:10.173Z,24.80
2023-02-06T10:11:47.907Z,21.88
2023-02-06T10:14:48.312Z,21.05
2023-02-06T10:17:28.037Z,16.10
2023-02-06T10:19:58.252Z,19.67
2023-02-06T10:22:31.647Z,18.40
2023-02-06T10:25:01.262Z,19.95
2023-02-06T10:27:28.136Z,22.17
2023-02-06T10:29:55.077Z,21.42
2023-02-06T10:33:24.813Z,15.90
2023-02-06T10:36:15.263Z,24.45
2023-02-06T10:39:07.730Z,20.35
2023-02-06T10:41:56.302Z,20.63
2023-02-06T10:44:29.652Z,15.80
2023-02-06T10:46:57.678Z,21.27
2023-02-06T10:49:46.704Z,15.27
2023-02-06T10:52:28.285Z,19.52
2023-02-06T10:55:05.190Z,17.38
2023-02-06T10:57:33.827Z,13.10
2023-02-06T11:00:03.023Z,18.88
2023-02-06T11:03:01.332Z,15.63
2023-02-06T11:05:33.917Z,13.82
2023-02-06T11:08:09.762Z,19.40
2023-02-06T11:10:37.489Z,22.17
2023-02-06T11:13:15.424Z,16.10
2023-02-06T11:15:59.590Z,19.10
2023-02-06T11:18:36.631Z,19.38
2023-02-06T11:21:04.246Z,18.05
2023-02-06T11:23:34.006Z,18.75
2023-02-06T11:26:15.176Z,16.42
2023-02-06T11:28:57.236Z,16.42
2023-02-06T11:31:46.408Z,16.27
2023-02-06T11:35:03.455Z,18.05
2023-02-06T11:37:39.214Z,16.42
2023-02-06T11:40:18.069Z,16.38
2023-02-06T11:42:52.720Z,16.30
2023-02-06T11:45:30.906Z,17.88
2023-02-06T11:47:58.800Z,18.95
2023-02-06T11:50:36.040Z,14.85
2023-02-06T11:53:29.368Z,15.98
2023-02-06T11:56:17.983Z,15.02
2023-02-06T11:58:45.439Z,19.63
2023-02-06T12:01:21.159Z,20.23
2023-02-06T12:03:51.082Z,18.65
2023-02-06T12:06:22.449Z,18.38
2023-02-06T12:09:01.045Z,17.67
2023-02-06T12:11:46.496Z,19.92
2023-02-06T12:14:19.179Z,14.38
2023-02-06T12:16:48.599Z,22.83
2023-02-06T12:19:33.680Z,20.17
2023-02-06T12:22:16.042Z,22.55
2023-02-06T12:24:46.320Z,17.13
2023-02-06T12:27:27.045Z,18.63
2023-02-06T12:30:31.089Z,17.90
2023-02-06T12:33:18.277Z,14.52
2023-02-06T12:36:00.044Z,14.23
2023-02-06T12:38:55.926Z,17.77
2023-02-06T12:42:01.736Z,10.48
2023-02-06T12:44:34.849Z,12.05
2023-02-06T12:47:13.784Z,20.40
2023-02-06T12:49:53.757Z,17.67
2023-02-06T12:53:07.321Z,15.35
2023-02-06T12:55:40.433Z,12.65
2023-02-06T12:58:28.235Z,14.32
2023-02-06T13:01:06.698Z,10.52
2023-02-06T13:03:42.781Z,12.63
2023-02-06T13:06:24.439Z,12.02
2023-02-06T13:08:58.035Z,16.23
2023-02-06T13:11:24.870Z,10.48
2023-02-06T13:14:01.696Z,14.10
2023-02-06T13:16:42.273Z,9.45
2023-02-06T13:19:25.099Z,13.35
2023-02-06T13:22:10.369Z,13.35
2023-02-06T13:24:38.869Z,11.02
2023-02-06T13:27:08.925Z,16.83
2023-02-06T13:29:40.302Z,11.18
2023-02-06T13:32:18.247Z,15.13
2023-02-06T13:34:57.333Z,14.13
2023-02-06T13:37:34.080Z,9.80
2023-02-06T13:40:30.373Z,15.00
2023-02-06T13:43:23.588Z,13.13
2023-02-06T13:46:00.401Z,8.10
2023-02-06T13:49:09.621Z,17.05
2023-02-06T13:51:58.675Z,11.68
2023-02-06T13:54:53.266Z,10.07
2023-02-06T13:57:42.355Z,8.63
2023-02-06T14:00:15.977Z,10.05
2023-02-06T14:02:48.581Z,16.83
2023-02-06T14:05:27.632Z,10.60
2023-02-06T14:08:33.546Z,18.02
2023-02-06T14:11:19.847Z,14.25
2023-02-06T14:14:03.898Z,11.30
2023-02-06T14:16:38.813Z,12.93
2023-02-06T14:19:28.731Z,14.20
2023-02-06T14:21:55.669Z,13.23
2023-02-06T14:24:53.114Z,13.45
2023-02-06T14:27:31.854Z,13.57
2023-02-06T14:30:05.419Z,17.30
2023-02-06T14:32:42.924Z,12.15
2023-02-06T14:35:46.792Z,12.60
2023-02-06T14:38:51.971Z,16.55
2023-02-06T14:41:20.252Z,13.60
2023-02-06T14:43:49.171Z,12.88
2023-02-06T14:46:19.069Z,16.25
2023-02-06T14:48:51.908Z,11.35
2023-02-06T14:51:39.722Z,14.95
2023-02-06T14:54:27.688Z,10.10
2023-02-06T14:57:04.627Z,11.88
2023-02-06T14:59:31.941Z,13.55
2023-02-06T15:02:11.387Z,17.65
2023-02-06T15:04:46.580Z,13.43
2023-02-06T15:07:32.077Z,12.38
2023-02-06T15:10:07.754Z,10.75
2023-02-06T15:12:36.320Z,13.52
2023-02-06T15:15:20.294Z,8.50
2023-02-06T15:18:01.950Z,11.93
2023-02-06T15:20:38.532Z,10.73
2023-02-06T15:23:22.664Z,15.40
2023-02-06T15:26:26.991Z,14.05
2023-02-06T15:29:02.249Z,12.70
2023-02-06T15:31:30.169Z,15.23
2023-02-06T15:33:59.580Z,11.00
2023-02-06T15:36:34.049Z,12.70
2023-02-06T15:39:02.673Z,9.38
2023-02-06T15:41:31.283Z,10.98
2023-02-06T15:44:09.511Z,15.50
2023-02-06T15:46:38.107Z,13.05
2023-02-06T15:49:06.874Z,10.45
2023-02-06T15:51:52.083Z,7.85
2023-02-06T15:54:20.186Z,9.35
2023-02-06T15:57:20.520Z,10.13
2023-02-06T15:59:47.821Z,8.70
2023-02-06T16:02:26.264Z,10.43
2023-02-06T16:04:54.330Z,9.77
2023-02-06T16:07:27.634Z,7.88
2023-02-06T16:10:09.336Z,8.27
2023-02-06T16:12:39.795Z,8.07
2023-02-06T16:15:27.772Z,6.88
2023-02-06T16:17:56.056Z,6.88
2023-02-06T16:20:37.254Z,8.07
2023-02-06T16:23:26.378Z,11.00
2023-02-06T16:26:02.323Z,11.10
2023-02-06T16:28:30.195Z,6.25
2023-02-06T16:31:00.599Z,8.55
2023-02-06T16:33:46.044Z,8.25
2023-02-06T16:36:19.743Z,6.13
2023-02-06T16:38:57.679Z,10.63
2023-02-06T16:41:39.058Z,11.10
2023-02-06T16:44:13.325Z,8.07
2023-02-06T16:46:40.434Z,8.50
2023-02-06T16:49:17.947Z,12.27
2023-02-06T16:51:46.610Z,11.25
2023-02-06T16:54:23.375Z,9.60
2023-02-06T16:56:50.596Z,7.75
2023-02-06T16:59:17.543Z,9.70
2023-02-06T17:01:44.574Z,13.18
2023-02-06T17:04:11.540Z,16.05
2023-02-06T17:06:38.503Z,8.80
2023-02-06T17:09:09.066Z,9.88
2023-02-06T17:11:37.600Z,10.75
2023-02-06T17:14:05.902Z,10.02
2023-02-06T17:16:33.759Z,13.38
2023-02-06T17:19:00.671Z,16.25
2023-02-06T17:21:29.796Z,16.52
2023-02-06T17:23:56.747Z,15.15
2023-02-06T17:26:24.597Z,10.98
2023-02-06T17:28:52.261Z,10.35
2023-02-06T17:31:20.396Z,8.30
2023-02-06T17:33:47.548Z,11.13
2023-02-06T17:36:22.597Z,15.18
2023-02-06T17:38:49.713Z,10.93
2023-02-06T17:41:16.740Z,8.50
2023-02-06T17:43:43.750Z,8.23
2023-02-06T17:46:11.624Z,9.55
2023-02-06T17:48:42.619Z,10.73
2023-02-06T17:51:09.835Z,9.98
2023-02-06T17:53:36.963Z,7.28
2023-02-06T17:56:12.716Z,11.38
2023-02-06T17:58:41.141Z,10.15
2023-02-06T18:01:19.457Z,11.13
2023-02-06T18:03:47.960Z,8.40
2023-02-06T18:06:15.428Z,8.20
2023-02-06T18:08:43.419Z,6.97
2023-02-06T18:11:13.452Z,8.82
2023-02-06T18:13:41.158Z,8.25
2023-02-06T18:16:12.842Z,10.15
2023-02-06T18:18:40.093Z,8.98
2023-02-06T18:21:06.908Z,11.75
2023-02-06T18:23:34.102Z,11.35
2023-02-06T18:26:02.826Z,6.25
2023-02-06T18:28:29.992Z,8.18
2023-02-06T18:30:57.252Z,8.75
2023-02-06T18:33:24.389Z,5.35
2023-02-06T18:35:51.433Z,6.18
2023-02-06T18:38:18.591Z,8.80
2023-02-06T18:40:46.693Z,18.60
2023-02-06T18:43:14.706Z,6.82
2023-02-06T18:45:42.508Z,12.07
2023-02-06T18:48:12.440Z,8.40
2023-02-06T18:50:42.349Z,10.55
2023-02-06T18:53:09.586Z,11.30
2023-02-06T18:55:37.281Z,15.10
2023-02-06T18:58:05.826Z,13.43
2023-02-06T19:00:35.756Z,12.40
2023-02-06T19:03:03.473Z,9.57
2023-02-06T19:05:35.290Z,12.57
2023-02-06T19:08:02.499Z,11.38
2023-02-06T19:10:29.641Z,12.70
2023-02-06T19:12:56.583Z,12.45
2023-02-06T19:15:23.676Z,11.10
2023-02-06T19:17:50.676Z,14.93
2023-02-06T19:20:18.521Z,11.35
2023-02-06T19:22:45.477Z,12.68
2023-02-06T19:25:14.636Z,12.85
2023-02-06T19:27:42.283Z,14.07
2023-02-06T19:30:10.307Z,9.88
2023-02-06T19:32:37.500Z,10.68
2023-02-06T19:35:05.039Z,10.48
2023-02-06T19:37:32.271Z,10.13
2023-02-06T19:39:59.329Z,11.60
2023-02-06T19:42:29.618Z,11.48
2023-02-06T19:44:56.768Z,10.02
2023-02-06T19:47:24.031Z,11.63
2023-02-06T19:49:52.675Z,12.43
2023-02-06T19:52:20.538Z,9.13
2023-02-06T19:54:47.899Z,8.50
2023-02-06T19:57:15.966Z,9.70
2023-02-06T19:59:43.012Z,9.40
2023-02-06T20:02:16.399Z,12.05
2023-02-06T20:04:45.281Z,12.55
2023-02-06T20:07:15.438Z,12.73
2023-02-06T20:09:42.756Z,11.13
2023-02-06T20:12:12.622Z,11.32
2023-02-06T20:14:44.058Z,9.77
2023-02-06T20:17:11.228Z,10.05
2023-02-06T20:19:38.230Z,9.35
2023-02-06T20:22:05.736Z,14.18
2023-02-06T20:24:33.138Z,12.02
2023-02-06T20:27:02.654Z,9.07
2023-02-06T20:29:36.962Z,10.60
2023-02-06T20:32:05.674Z,14.18
2023-02-06T20:34:33.380Z,13.27
2023-02-06T20:37:00.655Z,17.38
2023-02-06T20:39:28.729Z,11.45
2023-02-06T20:41:55.826Z,10.10
2023-02-06T20:44:23.103Z,16.15
2023-02-06T20:46:50.422Z,9.98
2023-02-06T20:49:23.332Z,18.30
2023-02-06T20:51:53.680Z,16.90
2023-02-06T20:54:21.680Z,17.38
2023-02-06T20:56:49.298Z,12.20
2023-02-06T20:59:18.239Z,15.18
2023-02-06T21:01:45.705Z,16.48
2023-02-06T21:04:15.309Z,12.50
2023-02-06T21:06:42.434Z,19.52
2023-02-06T21:09:10.278Z,13.63
2023-02-06T21:11:41.003Z,13.27
2023-02-06T21:14:08.474Z,11.88
2023-02-06T21:16:38.012Z,9.95
2023-02-06T21:19:07.847Z,16.15
2023-02-06T21:21:35.189Z,11.15
2023-02-06T21:24:02.267Z,13.13
2023-02-06T21:26:29.303Z,10.50
2023-02-06T21:28:58.339Z,12.93
2023-02-06T21:31:35.959Z,10.32
2023-02-06T21:34:18.177Z,10.90
2023-02-06T21:36:46.082Z,9.13
2023-02-06T21:39:19.100Z,10.27
2023-02-06T21:41:47.317Z,10.15
2023-02-06T21:44:14.204Z,13.23
2023-02-06T21:46:41.383Z,11.95
2023-02-06T21:49:11.589Z,12.52
2023-02-06T21:51:38.898Z,12.48
2023-02-06T21:54:06.137Z,12.57
2023-02-06T21:56:36.455Z,12.45
2023-02-06T21:59:03.778Z,10.77
2023-02-06T22:01:35.021Z,15.10
2023-02-06T22:04:03.138Z,12.70
2023-02-06T22:06:30.921Z,14.85
2023-02-06T22:09:05.076Z,22.38
2023-02-06T22:11:32.483Z,20.88
2023-02-06T22:14:02.271Z,24.83
2023-02-06T22:16:29.373Z,20.08
2023-02-06T22:18:57.046Z,21.70
2023-02-06T22:21:26.926Z,21.35
2023-02-06T22:23:57.563Z,17.70
2023-02-06T22:26:25.689Z,12.43
2023-02-06T22:28:52.613Z,11.98
2023-02-06T22:31:23.364Z,17.02
2023-02-06T22:33:51.264Z,11.50
2023-02-06T22:36:24.392Z,15.63
2023-02-06T22:39:02.098Z,17.08
2023-02-06T22:41:29.990Z,12.82
2023-02-06T22:43:57.287Z,14.05
2023-02-06T22:46:29.267Z,14.13
2023-02-06T22:48:56.730Z,16.90
2023-02-06T22:51:24.776Z,17.17
2023-02-06T22:53:52.156Z,19.67
2023-02-06T22:56:32.185Z,11.23
2023-02-06T22:59:21.571Z,15.23
2023-02-06T23:01:55.307Z,12.63
2023-02-06T23:04:27.030Z,16.52
2023-02-06T23:06:54.498Z,16.85
2023-02-06T23:09:27.660Z,13.43
2023-02-06T23:11:55.883Z,15.77
2023-02-06T23:14:23.086Z,16.80
2023-02-06T23:16:50.776Z,20.40
2023-02-06T23:19:19.148Z,13.07
2023-02-06T23:21:48.154Z,15.43
2023-02-06T23:24:24.597Z,15.18
2023-02-06T23:26:53.689Z,13.38
2023-02-06T23:29:22.607Z,15.18
2023-02-06T23:31:50.461Z,19.55
2023-02-06T23:34:18.595Z,11.60
2023-02-06T23:36:46.656Z,16.92
2023-02-06T23:39:14.134Z,16.63
2023-02-06T23:41:41.542Z,18.30
2023-02-06T23:44:10.275Z,19.27
2023-02-06T23:46:39.136Z,19.17
2023-02-06T23:49:06.573Z,12.88
2023-02-06T23:51:35.187Z,18.33
2023-02-06T23:54:02.861Z,14.60
2023-02-06T23:56:32.112Z,16.40
2023-02-06T23:59:01.064Z,17.42
